createdAt,value
2023-03-30T00:01:03.128Z,1.60
2023-03-30T00:03:29.951Z,2.30
2023-03-30T00:05:57.020Z,1.63
2023-03-30T00:08:30.600Z,2.30
2023-03-30T00:11:23.819Z,3.53
2023-03-30T00:13:50.944Z,2.50
2023-03-30T00:16:18.027Z,2.35
2023-03-30T00:18:47.622Z,2.35
2023-03-30T00:21:18.087Z,3.90
2023-03-30T00:23:47.687Z,2.10
2023-03-30T00:26:14.814Z,2.60
2023-03-30T00:28:41.515Z,2.72
2023-03-30T00:31:08.117Z,1.92
2023-03-30T00:33:44.687Z,1.70
2023-03-30T00:36:12.927Z,1.80
2023-03-30T00:38:40.483Z,1.83
2023-03-30T00:41:07.404Z,2.78
2023-03-30T00:43:34.004Z,2.65
2023-03-30T00:46:01.073Z,2.03
2023-03-30T00:48:30.966Z,2.53
2023-03-30T00:51:10.369Z,1.80
2023-03-30T00:53:43.391Z,1.90
2023-03-30T00:56:13.603Z,2.05
2023-03-30T00:58:41.842Z,2.85
2023-03-30T01:01:12.252Z,2.28
2023-03-30T01:04:02.126Z,1.90
2023-03-30T01:06:31.542Z,2.05
2023-03-30T01:08:58.298Z,3.40
2023-03-30T01:11:26.653Z,2.92
2023-03-30T01:14:04.565Z,1.58
2023-03-30T01:16:44.008Z,1.98
2023-03-30T01:19:25.764Z,1.75
2023-03-30T01:24:53.525Z,2.33
2023-03-30T01:27:50.665Z,2.10
2023-03-30T01:30:59.176Z,2.47
2023-03-30T01:33:45.906Z,2.17
2023-03-30T01:36:30.940Z,2.63
2023-03-30T01:39:20.062Z,3.20
2023-03-30T01:41:54.580Z,2.42
2023-03-30T01:44:36.627Z,2.28
2023-03-30T01:47:14.613Z,2.65
2023-03-30T01:50:01.756Z,2.10
2023-03-30T01:53:04.747Z,1.45
2023-03-30T01:55:34.161Z,3.40
2023-03-30T01:58:10.477Z,1.65
2023-03-30T02:00:41.394Z,2.30
2023-03-30T02:03:18.161Z,2.40
2023-03-30T02:05:46.939Z,2.58
2023-03-30T02:08:17.193Z,2.63
2023-03-30T02:10:46.333Z,1.90
2023-03-30T02:13:15.272Z,2.95
2023-03-30T02:15:45.820Z,2.15
2023-03-30T02:18:12.483Z,1.80
2023-03-30T02:20:39.729Z,2.60
2023-03-30T02:23:07.155Z,2.47
2023-03-30T02:25:36.420Z,2.08
2023-03-30T02:28:02.957Z,2.28
2023-03-30T02:30:34.301Z,2.13
2023-03-30T02:33:01.026Z,2.53
2023-03-30T02:35:49.058Z,2.72
2023-03-30T02:38:40.743Z,2.35
2023-03-30T02:41:29.581Z,1.92
2023-03-30T02:44:13.088Z,2.78
2023-03-30T02:46:51.898Z,2.10
2023-03-30T02:49:46.679Z,2.97
2023-03-30T02:52:41.425Z,3.08
2023-03-30T02:55:45.987Z,3.17
2023-03-30T02:58:56.436Z,2.35
2023-03-30T03:01:35.345Z,2.58
2023-03-30T03:04:11.268Z,2.53
2023-03-30T03:06:47.831Z,2.28
2023-03-30T03:09:15.313Z,3.17
2023-03-30T03:11:41.780Z,2.08
2023-03-30T03:14:09.481Z,2.58
2023-03-30T03:16:36.049Z,2.20
2023-03-30T03:19:11.019Z,2.40
2023-03-30T03:21:39.256Z,2.50
2023-03-30T03:24:06.624Z,2.20
2023-03-30T03:26:56.937Z,3.25
2023-03-30T03:29:23.691Z,2.50
2023-03-30T03:31:50.193Z,3.45
2023-03-30T03:34:20.216Z,2.85
2023-03-30T03:36:59.630Z,3.28
2023-03-30T03:39:28.561Z,4.00
2023-03-30T03:42:06.950Z,3.90
2023-03-30T03:44:37.691Z,3.10
2023-03-30T03:47:04.380Z,2.88
2023-03-30T03:49:30.858Z,3.28
2023-03-30T03:51:57.315Z,2.20
2023-03-30T03:54:24.466Z,2.95
2023-03-30T03:56:52.301Z,2.47
2023-03-30T03:59:18.824Z,3.33
2023-03-30T04:01:47.542Z,2.83
2023-03-30T04:04:14.051Z,2.95
2023-03-30T04:06:40.611Z,2.25
2023-03-30T04:09:08.165Z,4.07
2023-03-30T04:12:06.928Z,2.63
2023-03-30T04:14:41.779Z,3.33
2023-03-30T04:17:33.746Z,3.25
2023-03-30T04:20:35.603Z,2.25
2023-03-30T04:23:31.077Z,2.95
2023-03-30T04:26:17.465Z,3.75
2023-03-30T04:29:06.376Z,3.42
2023-03-30T04:31:46.945Z,3.10
2023-03-30T04:34:30.850Z,2.78
2023-03-30T04:37:18.176Z,3.53
2023-03-30T04:40:09.276Z,3.08
2023-03-30T04:42:55.567Z,2.92
2023-03-30T04:45:42.272Z,2.85
2023-03-30T04:48:29.039Z,3.50
2023-03-30T04:51:14.240Z,3.10
2023-03-30T04:53:59.333Z,2.80
2023-03-30T04:56:44.215Z,2.83
2023-03-30T04:59:29.401Z,3.97
2023-03-30T05:02:31.167Z,3.55
2023-03-30T05:05:16.588Z,3.22
2023-03-30T05:08:07.663Z,2.70
2023-03-30T05:10:47.474Z,3.28
2023-03-30T05:13:40.548Z,2.67
2023-03-30T05:16:25.780Z,2.88
2023-03-30T05:19:30.419Z,4.70
2023-03-30T05:22:14.443Z,2.92
2023-03-30T05:24:46.656Z,2.65
2023-03-30T05:27:15.960Z,2.55
2023-03-30T05:30:05.954Z,4.10
2023-03-30T05:38:09.262Z,4.28
2023-03-30T05:40:54.453Z,2.40
2023-03-30T05:43:47.754Z,3.03
2023-03-30T05:46:29.730Z,2.53
2023-03-30T05:49:07.663Z,2.10
2023-03-30T05:51:46.931Z,2.58
2023-03-30T05:54:21.808Z,2.58
2023-03-30T05:57:07.162Z,2.83
2023-03-30T05:59:39.403Z,2.25
2023-03-30T06:02:27.568Z,2.95
2023-03-30T06:05:01.608Z,2.83
2023-03-30T06:07:28.452Z,3.42
2023-03-30T06:09:55.212Z,2.42
2023-03-30T06:12:26.987Z,2.60
2023-03-30T06:14:54.333Z,2.75
2023-03-30T06:17:25.972Z,3.00
2023-03-30T06:19:52.723Z,3.88
2023-03-30T06:22:19.203Z,4.18
2023-03-30T06:25:03.445Z,2.83
2023-03-30T06:27:32.847Z,2.83
2023-03-30T06:29:59.709Z,2.80
2023-03-30T06:32:26.986Z,2.63
2023-03-30T06:35:18.013Z,2.45
2023-03-30T06:37:44.622Z,3.58
2023-03-30T06:40:13.334Z,4.00
2023-03-30T06:42:41.885Z,3.40
2023-03-30T06:45:21.956Z,3.67
2023-03-30T06:47:48.485Z,4.03
2023-03-30T06:50:15.762Z,3.13
2023-03-30T06:52:58.756Z,3.25
2023-03-30T06:55:30.244Z,3.33
2023-03-30T06:57:56.837Z,3.30
2023-03-30T07:00:23.403Z,3.97
2023-03-30T07:03:22.490Z,3.45
2023-03-30T07:06:21.030Z,3.55
2023-03-30T07:08:49.161Z,3.33
2023-03-30T07:11:22.524Z,3.00
2023-03-30T07:13:51.035Z,3.33
2023-03-30T07:16:18.244Z,3.70
2023-03-30T07:18:44.698Z,3.50
2023-03-30T07:21:11.570Z,3.42
2023-03-30T07:23:40.647Z,2.90
2023-03-30T07:26:09.469Z,4.63
2023-03-30T07:28:47.242Z,4.45
2023-03-30T07:31:14.785Z,3.75
2023-03-30T07:33:42.841Z,3.95
2023-03-30T07:36:13.602Z,3.58
2023-03-30T07:38:40.309Z,3.78
2023-03-30T07:41:12.546Z,3.70
2023-03-30T07:43:42.854Z,3.45
2023-03-30T07:46:14.227Z,3.70
2023-03-30T07:48:44.797Z,3.55
2023-03-30T07:51:13.607Z,3.85
2023-03-30T07:54:00.235Z,3.33
2023-03-30T07:56:44.602Z,3.25
2023-03-30T07:59:13.625Z,2.80
2023-03-30T08:01:42.647Z,3.03
2023-03-30T08:04:27.880Z,2.63
2023-03-30T08:06:54.499Z,2.88
2023-03-30T08:09:22.819Z,3.88
2023-03-30T08:11:49.839Z,2.50
2023-03-30T08:14:17.161Z,2.65
2023-03-30T08:16:43.702Z,2.20
2023-03-30T08:19:10.172Z,2.30
2023-03-30T08:21:36.976Z,2.42
2023-03-30T08:24:03.610Z,2.58
2023-03-30T08:26:30.909Z,2.20
2023-03-30T08:28:58.045Z,2.35
2023-03-30T08:31:24.875Z,2.22
2023-03-30T08:33:51.404Z,1.73
2023-03-30T08:36:19.949Z,1.83
2023-03-30T08:38:46.400Z,1.77
2023-03-30T08:41:27.995Z,1.95
2023-03-30T08:44:04.346Z,2.00
2023-03-30T08:46:31.094Z,1.88
2023-03-30T08:49:01.283Z,1.73
2023-03-30T08:51:30.339Z,1.85
2023-03-30T08:54:01.368Z,1.80
2023-03-30T08:56:31.951Z,1.73
2023-03-30T08:59:06.796Z,2.10
2023-03-30T09:01:52.380Z,1.60
2023-03-30T09:04:36.653Z,1.42
2023-03-30T09:07:14.611Z,1.58
2023-03-30T09:09:47.185Z,2.10
2023-03-30T09:12:31.484Z,2.10
2023-03-30T09:15:06.379Z,1.60
2023-03-30T09:17:35.440Z,1.85
2023-03-30T09:20:09.210Z,2.22
2023-03-30T09:22:40.760Z,1.98
2023-03-30T09:25:26.378Z,1.65
2023-03-30T09:28:09.319Z,1.83
2023-03-30T09:31:02.590Z,2.33
2023-03-30T09:34:01.574Z,1.40
2023-03-30T09:36:41.024Z,1.75
2023-03-30T09:39:18.351Z,1.58
2023-03-30T09:42:05.405Z,1.70
2023-03-30T09:44:37.742Z,1.85
2023-03-30T09:47:22.892Z,1.50
2023-03-30T09:49:55.566Z,1.45
2023-03-30T09:52:24.991Z,1.75
2023-03-30T09:54:51.481Z,1.98
2023-03-30T09:57:30.790Z,1.52
2023-03-30T09:59:59.843Z,2.15
2023-03-30T10:02:30.956Z,1.70
2023-03-30T10:05:00.480Z,1.77
2023-03-30T10:07:41.258Z,1.55
2023-03-30T10:10:27.218Z,1.70
2023-03-30T10:13:14.107Z,2.10
2023-03-30T10:15:46.293Z,1.85
2023-03-30T10:18:24.157Z,1.90
2023-03-30T10:21:01.773Z,1.70
2023-03-30T10:23:34.634Z,1.85
2023-03-30T10:26:03.999Z,2.50
2023-03-30T10:28:33.474Z,1.63
2023-03-30T10:31:04.297Z,1.75
2023-03-30T10:33:37.898Z,2.10
2023-03-30T10:36:06.939Z,1.63
2023-03-30T10:38:34.615Z,1.98
2023-03-30T10:41:07.570Z,1.73
2023-03-30T10:43:36.221Z,2.13
2023-03-30T10:46:20.351Z,2.08
2023-03-30T10:48:56.040Z,1.73
2023-03-30T10:51:35.745Z,2.10
2023-03-30T10:54:20.919Z,2.08
2023-03-30T10:57:11.664Z,2.00
2023-03-30T10:59:43.892Z,2.15
2023-03-30T11:02:48.720Z,2.22
2023-03-30T11:05:19.748Z,1.83
2023-03-30T11:08:07.399Z,1.90
2023-03-30T11:10:50.072Z,2.17
2023-03-30T11:13:26.382Z,1.65
2023-03-30T11:15:59.196Z,1.50
2023-03-30T11:18:39.964Z,1.58
2023-03-30T11:21:19.468Z,1.73
2023-03-30T11:23:55.155Z,1.40
2023-03-30T11:26:45.326Z,1.60
2023-03-30T11:29:44.486Z,1.50
2023-03-30T11:32:24.570Z,1.55
2023-03-30T11:35:01.196Z,1.30
2023-03-30T11:37:46.597Z,2.13
2023-03-30T11:40:23.188Z,1.95
2023-03-30T11:42:51.631Z,1.70
2023-03-30T11:45:48.870Z,2.20
2023-03-30T11:48:36.868Z,1.60
2023-03-30T11:51:24.769Z,2.17
2023-03-30T11:54:07.793Z,1.50
2023-03-30T11:56:43.614Z,1.70
2023-03-30T11:59:37.947Z,1.75
2023-03-30T12:02:07.495Z,1.73
2023-03-30T12:04:51.221Z,2.03
2023-03-30T12:07:26.971Z,2.83
2023-03-30T12:10:04.087Z,2.00
2023-03-30T12:12:36.313Z,1.80
2023-03-30T12:15:19.118Z,2.17
2023-03-30T12:18:11.842Z,2.10
2023-03-30T12:21:11.219Z,1.85
2023-03-30T12:23:54.872Z,1.83
2023-03-30T12:26:26.086Z,1.67
2023-03-30T12:29:44.298Z,1.85
2023-03-30T12:31:58.597Z,2.20
2023-03-30T12:34:31.661Z,1.63
2023-03-30T12:37:26.609Z,1.50
2023-03-30T12:40:06.510Z,1.80
2023-03-30T12:42:36.475Z,1.38
2023-03-30T12:45:15.023Z,2.47
2023-03-30T12:48:01.549Z,1.45
2023-03-30T12:51:07.155Z,1.70
2023-03-30T12:53:46.104Z,1.67
2023-03-30T12:56:26.886Z,1.80
2023-03-30T12:59:14.434Z,1.43
2023-03-30T13:01:43.760Z,1.83
2023-03-30T13:04:18.080Z,2.25
2023-03-30T13:06:51.916Z,1.90
2023-03-30T13:09:23.139Z,1.95
2023-03-30T13:11:52.455Z,1.77
2023-03-30T13:14:45.994Z,1.83
2023-03-30T13:17:19.394Z,1.88
2023-03-30T13:20:05.898Z,2.50
2023-03-30T13:22:36.253Z,1.20
2023-03-30T13:25:36.407Z,1.40
2023-03-30T13:28:32.071Z,1.38
2023-03-30T13:31:09.999Z,1.33
2023-03-30T13:33:40.119Z,1.25
2023-03-30T13:36:18.766Z,1.58
2023-03-30T13:38:45.326Z,1.33
2023-03-30T13:41:25.131Z,2.22
2023-03-30T13:44:27.640Z,1.52
2023-03-30T13:47:06.784Z,1.60
2023-03-30T13:49:57.960Z,1.42
2023-03-30T13:52:48.759Z,1.40
2023-03-30T13:55:47.079Z,2.80
2023-03-30T13:58:19.346Z,1.38
2023-03-30T14:00:56.294Z,1.23
2023-03-30T14:04:00.639Z,1.65
2023-03-30T14:06:29.507Z,1.35
2023-03-30T14:09:10.092Z,1.58
2023-03-30T14:11:46.145Z,1.58
2023-03-30T14:14:23.388Z,1.30
2023-03-30T14:16:51.321Z,1.00
2023-03-30T14:19:44.254Z,1.20
2023-03-30T14:22:27.308Z,1.17
2023-03-30T14:24:58.929Z,1.30
2023-03-30T14:29:52.761Z,1.20
2023-03-30T14:32:23.213Z,1.20
2023-03-30T14:34:52.266Z,0.90
2023-03-30T14:37:21.544Z,1.25
2023-03-30T14:39:57.589Z,0.98
2023-03-30T14:42:33.947Z,0.80
2023-03-30T14:45:00.999Z,0.80
2023-03-30T14:47:28.725Z,1.00
2023-03-30T14:50:03.054Z,0.88
2023-03-30T14:52:39.753Z,0.93
2023-03-30T14:55:11.476Z,1.00
2023-03-30T14:57:43.544Z,0.95
2023-03-30T15:00:20.431Z,0.90
2023-03-30T15:02:52.706Z,1.13
2023-03-30T15:05:22.529Z,1.20
2023-03-30T15:07:51.542Z,1.02
2023-03-30T15:10:45.315Z,1.40
2023-03-30T15:13:47.168Z,1.40
2023-03-30T15:18:42.876Z,1.27
2023-03-30T15:21:12.479Z,0.90
2023-03-30T15:23:43.120Z,1.65
2023-03-30T15:26:09.773Z,1.20
2023-03-30T15:28:50.768Z,1.08
2023-03-30T15:31:18.952Z,0.75
2023-03-30T15:33:57.600Z,1.10
2023-03-30T15:36:35.374Z,1.40
2023-03-30T15:39:01.884Z,0.80
2023-03-30T15:41:48.609Z,0.82
2023-03-30T15:44:20.005Z,0.90
2023-03-30T15:46:49.331Z,1.00
2023-03-30T15:49:22.460Z,1.10
2023-03-30T15:51:57.800Z,0.82
2023-03-30T15:54:47.945Z,0.90
2023-03-30T15:57:21.077Z,1.25
2023-03-30T15:59:56.371Z,1.00
2023-03-30T16:02:32.225Z,1.00
2023-03-30T16:05:01.023Z,1.10
2023-03-30T16:07:29.240Z,0.90
2023-03-30T16:09:55.849Z,1.30
2023-03-30T16:12:26.050Z,1.10
2023-03-30T16:14:53.504Z,0.80
2023-03-30T16:17:20.192Z,1.30
2023-03-30T16:19:46.927Z,1.50
2023-03-30T16:22:15.259Z,0.95
2023-03-30T16:24:42.120Z,0.80
2023-03-30T16:27:11.164Z,0.93
2023-03-30T16:29:37.628Z,0.65
2023-03-30T16:32:04.281Z,1.10
2023-03-30T16:34:30.778Z,0.77
2023-03-30T16:36:57.238Z,0.73
2023-03-30T16:39:26.655Z,0.80
2023-03-30T16:41:54.474Z,1.30
2023-03-30T16:44:23.785Z,0.90
2023-03-30T16:46:51.540Z,0.98
2023-03-30T16:49:23.454Z,0.70
2023-03-30T16:51:51.493Z,0.70
2023-03-30T16:54:30.481Z,0.55
2023-03-30T16:57:00.255Z,1.05
2023-03-30T16:59:30.109Z,1.08
2023-03-30T17:01:56.674Z,0.93
2023-03-30T17:04:23.110Z,0.82
2023-03-30T17:06:49.622Z,1.20
2023-03-30T17:09:18.442Z,0.95
2023-03-30T17:11:46.372Z,1.00
2023-03-30T17:14:13.137Z,1.27
2023-03-30T17:16:40.298Z,0.70
2023-03-30T17:19:11.670Z,0.80
2023-03-30T17:21:38.157Z,1.10
2023-03-30T17:24:04.836Z,1.42
2023-03-30T17:26:31.313Z,0.77
2023-03-30T17:28:57.899Z,1.10
2023-03-30T17:31:24.480Z,1.20
2023-03-30T17:33:51.075Z,1.15
2023-03-30T17:36:25.445Z,0.70
2023-03-30T17:38:52.467Z,1.10
2023-03-30T17:41:20.207Z,0.80
2023-03-30T17:43:48.086Z,0.82
2023-03-30T17:46:17.689Z,1.30
2023-03-30T17:48:44.552Z,1.17
2023-03-30T17:51:11.250Z,0.82
2023-03-30T17:53:37.936Z,0.82
2023-03-30T17:56:04.951Z,1.13
2023-03-30T17:58:34.324Z,0.60
2023-03-30T18:01:03.756Z,0.75
2023-03-30T18:03:31.267Z,0.85
2023-03-30T18:06:00.139Z,1.45
2023-03-30T18:08:27.572Z,1.00
2023-03-30T18:10:59.244Z,1.35
2023-03-30T18:15:54.849Z,0.77
2023-03-30T18:18:24.825Z,1.20
2023-03-30T18:21:03.105Z,1.20
2023-03-30T18:23:34.140Z,1.23
2023-03-30T18:26:01.902Z,0.93
2023-03-30T18:28:29.130Z,0.90
2023-03-30T18:31:00.453Z,1.00
2023-03-30T18:33:27.409Z,1.10
2023-03-30T18:35:56.591Z,0.98
2023-03-30T18:38:25.135Z,1.60
2023-03-30T18:40:57.338Z,1.20
2023-03-30T18:43:24.774Z,1.25
2023-03-30T18:45:51.325Z,1.20
2023-03-30T18:48:21.325Z,1.67
2023-03-30T18:50:50.897Z,2.25
2023-03-30T18:53:19.974Z,1.27
2023-03-30T18:55:49.146Z,1.10
2023-03-30T18:58:30.602Z,1.23
2023-03-30T19:00:57.675Z,1.45
2023-03-30T19:03:25.060Z,1.50
2023-03-30T19:05:51.959Z,1.42
2023-03-30T19:08:20.867Z,1.35
2023-03-30T19:10:50.913Z,1.58
2023-03-30T19:13:20.318Z,1.30
2023-03-30T19:15:48.349Z,1.38
2023-03-30T19:18:15.542Z,1.63
2023-03-30T19:20:42.167Z,1.63
2023-03-30T19:23:12.505Z,1.58
2023-03-30T19:25:39.812Z,1.20
2023-03-30T19:28:07.929Z,1.40
2023-03-30T19:30:38.981Z,1.45
2023-03-30T19:33:08.713Z,1.20
2023-03-30T19:35:35.731Z,1.88
2023-03-30T19:38:02.337Z,1.50
2023-03-30T19:40:28.847Z,1.50
2023-03-30T19:42:55.307Z,1.50
2023-03-30T19:45:23.562Z,1.75
2023-03-30T19:47:50.719Z,1.52
2023-03-30T19:50:20.125Z,1.15
2023-03-30T19:52:49.846Z,1.55
2023-03-30T19:55:20.835Z,1.50
2023-03-30T19:57:47.682Z,1.43
2023-03-30T20:00:16.472Z,1.50
2023-03-30T20:02:48.820Z,1.92
2023-03-30T20:05:16.530Z,2.33
2023-03-30T20:07:44.505Z,1.40
2023-03-30T20:10:14.264Z,1.30
2023-03-30T20:12:40.770Z,1.83
2023-03-30T20:15:08.375Z,1.67
2023-03-30T20:17:36.226Z,1.45
2023-03-30T20:20:06.619Z,1.45
2023-03-30T20:22:38.027Z,1.48
2023-03-30T20:25:08.322Z,1.67
2023-03-30T20:27:35.754Z,1.58
2023-03-30T20:30:04.069Z,1.73
2023-03-30T20:32:30.704Z,1.80
2023-03-30T20:34:57.240Z,2.08
2023-03-30T20:37:23.729Z,1.25
2023-03-30T20:39:50.457Z,1.42
2023-03-30T20:42:18.113Z,1.73
2023-03-30T20:44:50.264Z,1.50
2023-03-30T20:47:17.870Z,1.40
2023-03-30T20:49:46.265Z,1.50
2023-03-30T20:52:13.306Z,1.48
2023-03-30T20:54:41.123Z,1.67
2023-03-30T20:57:07.889Z,1.70
2023-03-30T20:59:34.435Z,1.83
2023-03-30T21:02:01.046Z,1.63
2023-03-30T21:04:27.707Z,1.50
2023-03-30T21:06:54.330Z,1.30
2023-03-30T21:09:20.807Z,1.42
2023-03-30T21:11:47.382Z,1.88
2023-03-30T21:14:14.281Z,2.28
2023-03-30T21:16:44.647Z,1.88
2023-03-30T21:19:11.923Z,1.40
2023-03-30T21:21:38.876Z,1.80
2023-03-30T21:24:07.071Z,1.80
2023-03-30T21:26:33.529Z,1.90
2023-03-30T21:29:00.076Z,2.05
2023-03-30T21:31:26.719Z,1.73
2023-03-30T21:33:53.667Z,1.40
2023-03-30T21:36:20.309Z,2.35
2023-03-30T21:38:46.827Z,1.42
2023-03-30T21:41:16.238Z,1.85
2023-03-30T21:43:45.494Z,1.55
2023-03-30T21:46:14.422Z,2.25
2023-03-30T21:48:42.710Z,1.55
2023-03-30T21:51:17.074Z,1.70
2023-03-30T21:53:46.016Z,1.60
2023-03-30T21:56:13.043Z,1.60
2023-03-30T21:58:39.695Z,1.60
2023-03-30T22:01:12.265Z,1.60
2023-03-30T22:03:42.609Z,2.08
2023-03-30T22:06:11.429Z,1.52
2023-03-30T22:08:38.034Z,1.50
2023-03-30T22:11:06.101Z,1.73
2023-03-30T22:13:32.686Z,1.38
2023-03-30T22:16:00.308Z,1.42
2023-03-30T22:18:27.875Z,1.60
2023-03-30T22:20:58.771Z,1.90
2023-03-30T22:23:25.211Z,1.58
2023-03-30T22:25:52.218Z,1.92
2023-03-30T22:28:18.694Z,1.80
2023-03-30T22:30:45.283Z,1.60
2023-03-30T22:33:13.096Z,1.65
2023-03-30T22:35:44.549Z,1.50
2023-03-30T22:38:11.683Z,1.35
2023-03-30T22:40:41.775Z,1.30
2023-03-30T22:43:09.321Z,1.77
2023-03-30T22:45:36.215Z,1.58
2023-03-30T22:48:02.780Z,1.38
2023-03-30T22:50:29.718Z,1.48
2023-03-30T22:52:57.168Z,1.73
2023-03-30T22:55:24.646Z,2.03
2023-03-30T22:57:53.054Z,1.58
2023-03-30T23:00:20.984Z,1.75
2023-03-30T23:02:49.276Z,1.58
2023-03-30T23:05:16.949Z,1.58
2023-03-30T23:07:44.189Z,1.75
2023-03-30T23:10:14.698Z,1.48
2023-03-30T23:12:42.225Z,1.88
2023-03-30T23:15:10.611Z,1.88
2023-03-30T23:17:38.031Z,1.90
2023-03-30T23:20:06.612Z,1.67
2023-03-30T23:22:33.084Z,2.15
2023-03-30T23:24:59.622Z,1.80
2023-03-30T23:27:26.107Z,1.48
2023-03-30T23:29:52.720Z,1.42
2023-03-30T23:32:19.324Z,1.27
2023-03-30T23:34:46.561Z,2.13
2023-03-30T23:37:13.199Z,1.63
2023-03-30T23:39:39.613Z,1.92
2023-03-30T23:42:06.940Z,2.00
2023-03-30T23:44:34.005Z,1.70
2023-03-30T23:47:00.778Z,1.80
2023-03-30T23:49:27.313Z,1.52
2023-03-30T23:51:53.791Z,1.70
2023-03-30T23:54:21.103Z,1.40
2023-03-30T23:56:48.803Z,1.48
2023-03-30T23:59:15.465Z,1.75
